Time;durP1;ratioP1;P1;durP2;ratioP2;P2;SDS_P1;SDS_P2;PMS_P1;PMS_P2;Temp;Humidity;BMP_temperature;BMP_pressure;BME280_temperature;BME280_humidity;BME280_pressure;Samples;Min_cycle;Max_cycle;Signal;HPM_P1;HPM_P2
2022/04/07 00:01:33;;;;;;;24.75;13.48;;;;;;;4.39;100.00;99204.20;1718657;83;21049;-70
2022/04/07 00:04:00;;;;;;;18.02;12.05;;;;;;;4.37;100.00;99200.78;1718546;83;21054;-69
2022/04/07 00:06:26;;;;;;;15.90;10.90;;;;;;;4.35;100.00;99199.11;1718512;83;21057;-69
2022/04/07 00:08:53;;;;;;;18.55;12.58;;;;;;;4.34;100.00;99195.63;1718673;83;21010;-69
2022/04/07 00:11:20;;;;;;;22.02;13.03;;;;;;;4.33;100.00;99193.08;1718610;83;21226;-69
2022/04/07 00:13:48;;;;;;;17.07;11.80;;;;;;;4.31;100.00;99199.63;1718504;83;21494;-69
2022/04/07 00:16:14;;;;;;;17.30;10.55;;;;;;;4.31;100.00;99189.20;1718610;83;21061;-70
2022/04/07 00:18:43;;;;;;;20.40;12.60;;;;;;;4.28;100.00;99182.78;1718555;83;21521;-69
2022/04/07 00:21:12;;;;;;;16.35;12.40;;;;;;;4.24;100.00;99178.53;1718711;83;21049;-71
2022/04/07 00:23:40;;;;;;;21.68;12.40;;;;;;;4.24;100.00;99181.14;1718593;83;21247;-70
2022/04/07 00:26:07;;;;;;;19.17;13.40;;;;;;;4.24;100.00;99175.08;1718763;83;21108;-70
2022/04/07 00:28:35;;;;;;;21.77;14.28;;;;;;;4.21;100.00;99179.93;1718343;83;21061;-69
2022/04/07 00:31:01;;;;;;;23.00;14.07;;;;;;;4.17;100.00;99178.30;1718481;83;21022;-69
2022/04/07 00:33:29;;;;;;;22.67;13.62;;;;;;;4.15;100.00;99173.56;1718326;83;21109;-69
2022/04/07 00:35:56;;;;;;;21.27;13.75;;;;;;;4.12;100.00;99169.75;1718583;83;21242;-70
2022/04/07 00:38:22;;;;;;;21.65;13.50;;;;;;;4.09;100.00;99173.72;1718524;83;21187;-69
2022/04/07 00:40:49;;;;;;;20.45;12.80;;;;;;;4.04;100.00;99171.23;1718396;83;21120;-69
2022/04/07 00:43:34;;;;;;;21.42;12.43;;;;;;;3.97;100.00;99169.22;1718191;83;22022;-69
2022/04/07 00:46:03;;;;;;;18.37;11.95;;;;;;;3.94;100.00;99169.31;1718484;83;21112;-70
2022/04/07 00:48:35;;;;;;;16.87;11.18;;;;;;;3.86;100.00;99161.28;1718607;83;21179;-69
2022/04/07 00:50:59;;;;;;;15.72;10.68;;;;;;;3.80;100.00;99162.30;1717890;83;21065;-69
2022/04/07 00:53:25;;;;;;;15.48;10.75;;;;;;;3.77;100.00;99163.66;1714843;83;21558;-68
2022/04/07 00:55:52;;;;;;;18.32;12.15;;;;;;;3.71;100.00;99162.53;1704918;84;21475;-69
2022/04/07 00:58:19;;;;;;;22.07;13.18;;;;;;;3.66;100.00;99157.85;1704867;84;21031;-70
2022/04/07 01:00:48;;;;;;;19.55;13.30;;;;;;;3.56;100.00;99157.23;1705045;84;21125;-69
2022/04/07 01:03:14;;;;;;;19.48;13.05;;;;;;;3.50;100.00;99154.34;1704656;84;20999;-69
2022/04/07 01:05:42;;;;;;;18.25;12.15;;;;;;;3.45;100.00;99160.11;1704932;83;21030;-69
2022/04/07 01:08:10;;;;;;;23.25;15.15;;;;;;;3.39;100.00;99157.64;1705048;84;20998;-69
2022/04/07 01:10:38;;;;;;;22.75;13.62;;;;;;;3.37;100.00;99156.81;1705041;84;21089;-70
2022/04/07 01:13:05;;;;;;;18.42;12.85;;;;;;;3.32;100.00;99156.07;1704882;84;21146;-70
2022/04/07 01:15:33;;;;;;;21.07;13.43;;;;;;;3.28;100.00;99159.17;1704950;84;21007;-69
2022/04/07 01:18:01;;;;;;;21.30;14.80;;;;;;;3.24;100.00;99157.98;1704728;84;21097;-69
2022/04/07 01:20:29;;;;;;;25.15;14.58;;;;;;;3.21;100.00;99154.16;1705161;83;21069;-69
2022/04/07 01:22:56;;;;;;;21.97;14.43;;;;;;;3.18;100.00;99152.94;1705139;84;20998;-69
2022/04/07 01:25:27;;;;;;;27.70;15.30;;;;;;;3.19;100.00;99148.13;1704942;84;21157;-69
2022/04/07 01:27:55;;;;;;;22.55;13.75;;;;;;;3.18;100.00;99141.23;1704858;84;21038;-68
2022/04/07 01:30:22;;;;;;;24.57;14.93;;;;;;;3.19;100.00;99141.63;1705121;84;21049;-68
2022/04/07 01:32:56;;;;;;;25.32;16.70;;;;;;;3.22;100.00;99137.64;1705069;84;21049;-71
2022/04/07 01:35:25;;;;;;;25.32;15.55;;;;;;;3.22;100.00;99135.04;1704991;84;21034;-70
2022/04/07 01:37:53;;;;;;;27.75;16.97;;;;;;;3.21;100.00;99130.74;1704971;84;21233;-69
2022/04/07 01:40:23;;;;;;;24.80;15.28;;;;;;;3.18;100.00;99133.42;1704920;84;21003;-71
2022/04/07 01:42:52;;;;;;;27.05;16.40;;;;;;;3.17;100.00;99130.39;1705243;84;21014;-68
2022/04/07 01:45:19;;;;;;;24.30;15.68;;;;;;;3.14;100.00;99137.38;1704828;84;21030;-69
2022/04/07 01:47:48;;;;;;;24.45;15.63;;;;;;;3.11;100.00;99129.66;1704894;84;20995;-69
2022/04/07 01:50:14;;;;;;;24.27;14.40;;;;;;;3.09;100.00;99130.13;1714540;82;21235;-68
2022/04/07 01:52:42;;;;;;;22.93;13.62;;;;;;;3.06;100.00;99128.91;1734415;82;21090;-69
2022/04/07 01:55:09;;;;;;;23.47;15.15;;;;;;;3.05;100.00;99130.23;1734143;82;21081;-70
2022/04/07 01:57:36;;;;;;;23.00;14.18;;;;;;;3.03;100.00;99133.31;1734409;82;21054;-70
2022/04/07 02:00:05;;;;;;;24.25;14.87;;;;;;;2.99;100.00;99131.66;1676401;82;21053;-69
2022/04/07 02:02:35;;;;;;;22.75;14.87;;;;;;;3.00;100.00;99129.03;1734028;82;21933;-69
2022/04/07 02:05:08;;;;;;;19.55;11.45;;;;;;;2.96;100.00;99126.08;1734226;82;21014;-70
2022/04/07 02:07:33;;;;;;;21.62;14.13;;;;;;;2.95;100.00;99128.28;1734349;81;21053;-69
2022/04/07 02:10:02;;;;;;;17.07;11.50;;;;;;;2.92;100.00;99125.31;1734099;82;21025;-69
2022/04/07 02:12:29;;;;;;;15.70;10.78;;;;;;;2.92;100.00;99121.83;1734132;82;21045;-69
2022/04/07 02:14:57;;;;;;;16.73;11.25;;;;;;;2.89;100.00;99120.61;1734052;82;21156;-70
2022/04/07 02:17:25;;;;;;;16.70;10.60;;;;;;;2.86;100.00;99124.59;1733855;82;21077;-70
2022/04/07 02:19:56;;;;;;;20.08;12.58;;;;;;;2.80;100.00;99130.76;1734267;82;21017;-68
2022/04/07 02:22:23;;;;;;;21.42;14.07;;;;;;;2.78;100.00;99132.98;1734409;82;21042;-69
2022/04/07 02:24:51;;;;;;;21.85;13.95;;;;;;;2.77;100.00;99129.98;1734094;82;21022;-70
2022/04/07 02:27:17;;;;;;;23.32;14.85;;;;;;;2.78;100.00;99132.98;1734088;82;21278;-69
2022/04/07 02:29:44;;;;;;;23.05;14.38;;;;;;;2.81;100.00;99135.54;1734200;82;21054;-69
2022/04/07 02:32:14;;;;;;;22.50;13.72;;;;;;;2.78;100.00;99134.28;1734089;82;21082;-69
2022/04/07 02:34:41;;;;;;;;;;;;;;;2.75;100.00;99131.76;1716685;82;21063;-69
2022/04/07 02:37:09;;;;;;;27.73;16.55;;;;;;;2.75;100.00;99121.36;1734412;81;20463;-70
2022/04/07 02:39:37;;;;;;;25.92;14.38;;;;;;;2.79;100.00;99120.41;1734436;82;21191;-70
2022/04/07 02:42:05;;;;;;;22.42;14.25;;;;;;;2.89;100.00;99124.05;1734284;82;21015;-69
2022/04/07 02:44:32;;;;;;;21.55;12.95;;;;;;;2.91;100.00;99111.03;1734288;82;21038;-70
2022/04/07 02:46:59;;;;;;;19.57;12.82;;;;;;;2.91;100.00;99107.13;1734317;82;20995;-70
2022/04/07 02:49:27;;;;;;;21.45;14.18;;;;;;;2.88;100.00;99096.81;1734448;82;21050;-71
2022/04/07 02:51:53;;;;;;;21.75;12.43;;;;;;;2.86;100.00;99103.33;1705241;84;21132;-70
2022/04/07 02:54:20;;;;;;;19.07;12.15;;;;;;;2.84;100.00;99105.56;1709359;83;21170;-70
2022/04/07 02:56:47;;;;;;;21.90;11.65;;;;;;;2.81;100.00;99112.98;1718617;83;21102;-69
2022/04/07 02:59:14;;;;;;;20.60;13.45;;;;;;;2.79;100.00;99108.71;1718417;83;21022;-71
2022/04/07 03:01:40;;;;;;;20.48;11.75;;;;;;;2.76;100.00;99115.25;1718578;83;21049;-69
2022/04/07 03:04:10;;;;;;;17.73;11.90;;;;;;;2.70;100.00;99121.00;1718428;83;21030;-69
2022/04/07 03:09:20;;;;;;;26.27;15.40;;;;;;;2.70;100.00;99120.16;1796544;79;22643;-68
2022/04/07 03:11:46;;;;;;;32.48;17.25;;;;;;;2.65;100.00;99118.95;1756624;81;21182;-69
2022/04/07 03:14:14;;;;;;;20.82;14.03;;;;;;;2.64;100.00;99114.63;1756424;81;21246;-69
2022/04/07 03:16:42;;;;;;;24.12;14.78;;;;;;;2.69;100.00;99121.91;1756460;81;20966;-69
2022/04/07 03:19:10;;;;;;;30.85;17.17;;;;;;;2.69;100.00;99119.73;1756481;81;21009;-68
2022/04/07 03:21:39;;;;;;;32.85;19.60;;;;;;;2.66;100.00;99112.00;1756603;81;20974;-68
2022/04/07 03:24:06;;;;;;;35.78;21.05;;;;;;;2.67;100.00;99115.03;1756574;81;21034;-69
2022/04/07 03:26:34;;;;;;;36.23;19.95;;;;;;;2.73;100.00;99105.78;1756292;81;21542;-70
2022/04/07 03:29:01;;;;;;;31.68;18.25;;;;;;;2.79;100.00;99106.11;1756062;81;21045;-70
2022/04/07 03:31:28;;;;;;;27.73;17.60;;;;;;;2.87;100.00;99107.63;1756125;81;21057;-70
2022/04/07 03:33:55;;;;;;;36.55;18.60;;;;;;;2.93;100.00;99104.05;1756202;81;21120;-70
2022/04/07 03:36:22;;;;;;;27.45;17.07;;;;;;;3.01;100.00;99115.58;1756088;81;21069;-70
2022/04/07 03:38:54;;;;;;;28.60;17.70;;;;;;;3.07;100.00;99118.05;1752436;81;21022;-69
2022/04/07 03:41:19;;;;;;;34.75;16.70;;;;;;;3.11;100.00;99114.05;1745918;82;21577;-71
2022/04/07 03:43:45;;;;;;;29.77;17.20;;;;;;;3.21;100.00;99104.72;1747757;82;21045;-69
2022/04/07 03:46:16;;;;;;;28.92;16.62;;;;;;;3.33;100.00;99107.02;1747778;82;21065;-69
2022/04/07 03:48:41;;;;;;;29.15;17.35;;;;;;;3.42;100.00;99111.16;1747930;82;21589;-70
2022/04/07 03:51:07;;;;;;;33.40;17.57;;;;;;;3.51;100.00;99107.88;1748244;82;21897;-69
2022/04/07 03:53:35;;;;;;;34.60;17.62;;;;;;;3.58;100.00;99104.68;1748061;82;21565;-69
2022/04/07 03:56:03;;;;;;;29.48;17.57;;;;;;;3.67;100.00;99110.11;1748059;82;22088;-69
2022/04/07 03:58:30;;;;;;;32.25;17.70;;;;;;;3.72;100.00;99104.33;1748055;82;21442;-70
2022/04/07 04:00:58;;;;;;;31.80;17.60;;;;;;;3.83;100.00;99108.82;1748091;82;21568;-70
2022/04/07 04:03:26;;;;;;;28.23;17.30;;;;;;;4.14;100.00;99099.75;1748230;82;21230;-71
2022/04/07 04:05:52;;;;;;;30.85;16.87;;;;;;;4.56;100.00;99102.50;1747804;82;22145;-70
2022/04/07 04:08:19;;;;;;;30.20;16.90;;;;;;;4.87;100.00;99095.06;1742123;81;21031;-71
2022/04/07 04:10:47;;;;;;;28.40;15.98;;;;;;;5.20;100.00;99104.47;1734936;82;21605;-69
2022/04/07 04:13:15;;;;;;;22.52;14.13;;;;;;;5.56;100.00;99096.33;1735004;82;21545;-70
2022/04/07 04:15:42;;;;;;;26.23;15.78;;;;;;;5.91;100.00;99095.59;1735050;82;21309;-73
2022/04/07 04:18:09;;;;;;;29.42;16.40;;;;;;;6.40;100.00;99101.75;1734979;82;21510;-70
2022/04/07 04:20:36;;;;;;;24.95;15.53;;;;;;;6.88;100.00;99102.59;1734644;82;21011;-70
2022/04/07 04:23:03;;;;;;;27.73;15.03;;;;;;;7.35;100.00;99099.40;1734566;82;21043;-69
2022/04/07 04:25:30;;;;;;;22.02;13.85;;;;;;;7.95;97.85;99096.91;1734651;82;21085;-70
2022/04/07 04:27:57;;;;;;;25.02;16.57;;;;;;;8.59;94.20;99098.52;1734435;82;21175;-70
2022/04/07 04:30:24;;;;;;;26.60;15.13;;;;;;;9.21;89.56;99096.98;1734326;82;21078;-70
2022/04/07 04:32:51;;;;;;;22.62;14.18;;;;;;;9.77;85.39;99103.84;1734458;82;21085;-70
2022/04/07 04:35:18;;;;;;;23.25;15.18;;;;;;;10.32;80.48;99102.84;1734492;82;21097;-69
2022/04/07 04:37:46;;;;;;;25.92;15.70;;;;;;;10.84;78.67;99100.06;1734419;82;21093;-69
2022/04/07 04:40:12;;;;;;;24.40;15.72;;;;;;;11.30;76.21;99101.47;1734404;82;21227;-71
2022/04/07 04:42:41;;;;;;;23.05;14.75;;;;;;;11.72;73.82;99103.05;1734282;82;21042;-70
2022/04/07 04:45:08;;;;;;;24.77;15.28;;;;;;;12.06;70.81;99105.07;1734269;82;21104;-70
2022/04/07 04:47:35;;;;;;;23.92;14.93;;;;;;;12.24;69.11;99096.50;1734488;82;21081;-69
2022/04/07 04:50:05;;;;;;;23.92;14.68;;;;;;;12.42;67.15;99102.46;1727593;82;21034;-70
2022/04/07 04:52:32;;;;;;;19.52;14.03;;;;;;;12.30;64.55;99105.38;1705199;84;21135;-70
2022/04/07 04:55:00;;;;;;;18.10;12.30;;;;;;;12.14;64.28;99110.72;1705020;84;21613;-70
2022/04/07 04:57:28;;;;;;;21.50;12.98;;;;;;;12.04;63.03;99114.86;1704944;84;21046;-70
2022/04/07 04:59:56;;;;;;;20.68;12.58;;;;;;;12.11;63.92;99108.28;1704852;84;21450;-70
2022/04/07 05:02:24;;;;;;;19.70;12.65;;;;;;;12.23;62.62;99112.81;1734016;82;21031;-70
2022/04/07 05:04:52;;;;;;;15.93;10.72;;;;;;;12.31;62.35;99107.94;1734369;82;21988;-70
2022/04/07 05:07:19;;;;;;;16.73;12.18;;;;;;;12.33;61.41;99108.70;1734313;82;21588;-70
2022/04/07 05:09:47;;;;;;;22.32;13.00;;;;;;;12.37;61.36;99112.82;1734480;82;21054;-69
2022/04/07 05:12:13;;;;;;;21.20;13.43;;;;;;;12.30;61.65;99118.09;1734327;82;21014;-70
2022/04/07 05:14:40;;;;;;;23.70;15.28;;;;;;;12.25;62.06;99124.13;1734393;82;21038;-71
2022/04/07 05:17:08;;;;;;;25.35;15.03;;;;;;;12.11;62.00;99130.71;1734495;82;22198;-70
2022/04/07 05:19:38;;;;;;;24.98;16.67;;;;;;;11.96;62.26;99128.05;1734370;82;21038;-69
2022/04/07 05:22:05;;;;;;;25.97;17.52;;;;;;;11.91;62.65;99120.84;1734226;82;21570;-71
2022/04/07 05:24:33;;;;;;;25.05;16.62;;;;;;;11.99;62.35;99111.66;1734290;82;21058;-70
2022/04/07 05:27:00;;;;;;;29.45;16.97;;;;;;;12.04;61.90;99113.55;1734377;82;21533;-69
2022/04/07 05:29:28;;;;;;;28.05;17.77;;;;;;;12.08;61.10;99115.07;1734500;82;21902;-69
2022/04/07 05:31:54;;;;;;;28.57;15.78;;;;;;;12.06;61.01;99107.70;1734380;82;21617;-70
2022/04/07 05:34:22;;;;;;;28.12;15.50;;;;;;;12.18;61.06;99104.33;1734495;82;21006;-70
2022/04/07 05:36:49;;;;;;;24.30;15.32;;;;;;;12.29;60.83;99105.86;1734486;82;21011;-70
2022/04/07 05:39:15;;;;;;;24.35;15.15;;;;;;;12.45;60.35;99108.89;1734436;82;20987;-70
2022/04/07 05:41:42;;;;;;;21.02;13.55;;;;;;;12.56;58.66;99098.50;1734507;82;21376;-70
2022/04/07 05:44:09;;;;;;;22.45;13.93;;;;;;;12.70;59.07;99098.52;1734254;82;21049;-71
2022/04/07 05:46:35;;;;;;;20.85;12.80;;;;;;;12.93;58.18;99093.56;1734389;82;21069;-70
2022/04/07 05:49:03;;;;;;;19.75;13.72;;;;;;;13.27;57.28;99087.45;1734465;82;21058;-71
2022/04/07 05:51:30;;;;;;;16.82;11.93;;;;;;;13.56;56.34;99089.07;1697145;82;21139;-70
2022/04/07 05:53:57;;;;;;;17.17;10.70;;;;;;;13.67;55.26;99090.18;1690025;84;21103;-70
2022/04/07 05:56:23;;;;;;;18.48;11.70;;;;;;;13.71;54.79;99082.38;1690033;84;21107;-69
2022/04/07 05:58:51;;;;;;;17.90;11.83;;;;;;;13.77;54.95;99082.83;1689842;84;22093;-69
2022/04/07 06:01:17;;;;;;;16.50;11.28;;;;;;;13.84;53.92;99087.23;1690751;82;21544;-70
2022/04/07 06:03:44;;;;;;;17.32;10.88;;;;;;;13.76;53.68;99093.53;1690214;84;21656;-70
2022/04/07 06:06:11;;;;;;;15.38;9.95;;;;;;;13.91;53.46;99089.84;1690196;84;22201;-70
2022/04/07 06:08:38;;;;;;;14.85;9.65;;;;;;;14.26;53.03;99089.23;1699186;83;21093;-69
2022/04/07 06:11:04;;;;;;;14.35;9.58;;;;;;;14.51;51.27;99098.98;1718339;83;21037;-71
2022/04/07 06:13:34;;;;;;;16.67;9.30;;;;;;;14.61;51.56;99101.89;1718240;83;21053;-70
2022/04/07 06:16:01;;;;;;;14.07;9.50;;;;;;;14.91;50.62;99092.25;1718527;83;21148;-70
2022/04/07 06:18:28;;;;;;;16.17;9.75;;;;;;;15.26;49.76;99084.39;1718365;83;21166;-71
2022/04/07 06:20:54;;;;;;;14.15;8.95;;;;;;;15.43;49.02;99086.28;1718437;83;21058;-70
2022/04/07 06:23:21;;;;;;;16.07;10.20;;;;;;;15.41;48.64;99087.70;1718622;83;21058;-71
2022/04/07 06:25:48;;;;;;;14.73;9.63;;;;;;;15.52;48.88;99085.59;1718431;83;21042;-70
2022/04/07 06:28:15;;;;;;;12.75;9.48;;;;;;;15.63;48.78;99090.12;1718492;83;21077;-70
2022/04/07 06:30:42;;;;;;;15.25;9.48;;;;;;;15.72;48.21;99087.66;1718555;83;21269;-69
2022/04/07 06:33:08;;;;;;;15.32;9.10;;;;;;;15.84;48.12;99088.53;1718346;83;21021;-69
2022/04/07 06:35:35;;;;;;;18.00;9.28;;;;;;;16.06;46.66;99098.39;1718324;83;21610;-70
2022/04/07 06:38:02;;;;;;;11.93;8.68;;;;;;;16.25;46.07;99089.84;1718458;83;21562;-71
2022/04/07 06:40:29;;;;;;;14.45;8.93;;;;;;;16.32;46.06;99088.90;1718436;83;21060;-69
2022/04/07 06:42:59;;;;;;;13.62;8.35;;;;;;;16.48;45.95;99088.06;1718426;83;21231;-70
2022/04/07 06:45:28;;;;;;;10.75;7.60;;;;;;;16.63;45.56;99089.16;1718372;83;21072;-71
2022/04/07 06:47:55;;;;;;;13.00;8.33;;;;;;;16.87;45.13;99079.27;1718368;83;21712;-71
2022/04/07 06:50:23;;;;;;;11.90;7.83;;;;;;;17.18;45.14;99079.00;1729539;82;21061;-70
2022/04/07 06:52:50;;;;;;;10.88;6.80;;;;;;;17.65;44.29;99077.88;1748318;82;21600;-70
2022/04/07 06:55:17;;;;;;;9.90;7.05;;;;;;;17.90;42.51;99085.54;1748506;82;21157;-70
2022/04/07 06:57:57;;;;;;;9.40;6.75;;;;;;;18.02;42.52;99083.66;1748253;81;21030;-69
2022/04/07 07:00:25;;;;;;;13.05;6.65;;;;;;;18.28;41.53;99089.42;1748321;82;21611;-70
2022/04/07 07:02:53;;;;;;;11.30;7.15;;;;;;;18.56;40.91;99085.21;1748451;82;21093;-71
2022/04/07 07:05:24;;;;;;;11.60;7.35;;;;;;;18.83;40.46;99075.83;1748344;82;21037;-70
2022/04/07 07:07:50;;;;;;;6.80;4.87;;;;;;;19.11;39.54;99068.05;1748684;81;21299;-71
2022/04/07 07:10:24;;;;;;;8.40;5.78;;;;;;;19.44;39.28;99063.67;1748442;81;21545;-71
2022/04/07 07:12:52;;;;;;;14.75;6.42;;;;;;;19.59;38.67;99067.26;1748298;82;21069;-71
2022/04/07 07:15:21;;;;;;;8.95;5.45;;;;;;;19.46;38.58;99071.52;1748167;81;21077;-70
2022/04/07 07:17:51;;;;;;;8.90;5.37;;;;;;;19.31;38.86;99069.77;1748175;81;21565;-71
2022/04/07 07:20:18;;;;;;;7.40;5.42;;;;;;;19.45;38.38;99061.84;1748229;82;21216;-70
2022/04/07 07:22:46;;;;;;;9.95;5.58;;;;;;;19.79;38.50;99060.97;1748684;81;21101;-70
2022/04/07 07:25:13;;;;;;;9.45;5.30;;;;;;;19.87;37.77;99061.08;1748468;82;21049;-71
2022/04/07 07:27:45;;;;;;;8.88;5.33;;;;;;;20.11;38.31;99059.80;1748397;81;21057;-70
2022/04/07 07:30:15;;;;;;;10.05;5.33;;;;;;;20.13;37.07;99059.17;1747585;82;21120;-71
2022/04/07 07:32:46;;;;;;;8.78;5.50;;;;;;;19.99;37.06;99052.91;1748323;81;21089;-71
2022/04/07 07:35:12;;;;;;;7.85;5.80;;;;;;;19.85;37.56;99048.39;1748477;82;21505;-70
2022/04/07 07:38:01;;;;;;;11.08;5.53;;;;;;;19.96;37.39;99051.88;1748457;81;21546;-70
2022/04/07 07:40:31;;;;;;;10.35;4.55;;;;;;;20.28;37.15;99048.34;1748301;82;21133;-71
2022/04/07 07:43:00;;;;;;;8.15;4.90;;;;;;;20.25;36.82;99050.48;1748431;81;21061;-70
2022/04/07 07:45:28;;;;;;;7.58;4.90;;;;;;;20.23;37.04;99047.95;1747972;82;21898;-70
2022/04/07 07:47:56;;;;;;;9.30;5.03;;;;;;;20.34;36.32;99038.92;1748439;81;21068;-70
2022/04/07 07:50:23;;;;;;;9.40;5.95;;;;;;;20.05;36.31;99037.66;1737172;81;21017;-71
2022/04/07 07:52:51;;;;;;;9.28;5.42;;;;;;;20.16;37.27;99034.81;1718418;83;21057;-70
2022/04/07 07:55:18;;;;;;;8.68;5.22;;;;;;;20.53;36.42;99031.31;1746723;82;21093;-70
2022/04/07 07:57:45;;;;;;;10.88;4.65;;;;;;;20.66;35.57;99034.53;1748220;82;21100;-70
2022/04/07 08:00:16;;;;;;;7.50;5.20;;;;;;;20.70;35.46;99025.70;1748522;82;21049;-71
2022/04/07 08:02:43;;;;;;;8.38;5.00;;;;;;;20.61;35.37;99020.73;1748260;82;21046;-70
2022/04/07 08:05:10;;;;;;;5.87;5.10;;;;;;;20.77;35.04;99016.59;1748415;82;21604;-69
2022/04/07 08:07:41;;;;;;;7.28;5.03;;;;;;;20.99;34.79;99012.17;1748241;82;21080;-69
2022/04/07 08:10:12;;;;;;;8.45;5.65;;;;;;;21.12;35.04;99009.97;1738830;81;22004;-69
2022/04/07 08:12:41;;;;;;;9.23;5.83;;;;;;;21.10;34.79;99006.60;1733596;82;21050;-69
2022/04/07 08:15:09;;;;;;;8.40;5.50;;;;;;;20.92;34.62;99002.56;1734537;82;21092;-70
2022/04/07 08:17:37;;;;;;;9.03;5.35;;;;;;;20.79;35.18;99002.57;1734485;82;21058;-71
2022/04/07 08:20:07;;;;;;;11.05;4.95;;;;;;;20.96;35.14;98997.76;1734420;82;21010;-71
2022/04/07 08:22:34;;;;;;;8.53;4.90;;;;;;;21.16;34.56;98984.59;1734739;82;21152;-71
2022/04/07 08:25:01;;;;;;;6.30;4.22;;;;;;;21.22;34.66;98989.81;1734199;82;21022;-70
2022/04/07 08:27:28;;;;;;;9.08;5.10;;;;;;;20.96;33.98;98989.73;1734809;82;21074;-70
2022/04/07 08:29:55;;;;;;;7.17;5.03;;;;;;;20.53;34.55;98987.19;1734494;82;21034;-69
2022/04/07 08:32:21;;;;;;;6.55;4.33;;;;;;;20.48;35.22;98989.47;1734286;82;21109;-70
2022/04/07 08:34:48;;;;;;;6.58;4.30;;;;;;;20.47;34.94;98977.08;1734296;82;21209;-69
2022/04/07 08:37:15;;;;;;;5.17;4.12;;;;;;;20.57;34.91;98977.91;1734174;82;21042;-70
2022/04/07 08:39:43;;;;;;;6.70;4.20;;;;;;;20.93;34.50;98969.94;1734059;82;21105;-69
2022/04/07 08:42:11;;;;;;;13.00;4.60;;;;;;;20.96;34.16;98975.02;1734357;82;21038;-69
2022/04/07 08:44:38;;;;;;;8.85;4.45;;;;;;;20.62;34.64;98980.14;1713766;82;21148;-69
2022/04/07 08:47:06;;;;;;;6.92;4.50;;;;;;;20.39;35.33;98976.98;1734506;82;21882;-70
2022/04/07 08:49:33;;;;;;;12.82;4.87;;;;;;;20.30;35.21;98960.83;1732913;82;21014;-70
2022/04/07 08:52:00;;;;;;;8.53;5.25;;;;;;;20.37;35.69;98965.59;1690132;84;21111;-71
2022/04/07 08:54:26;;;;;;;7.28;5.03;;;;;;;20.54;35.51;98962.11;1690032;84;22254;-70
2022/04/07 08:56:53;;;;;;;8.98;4.97;;;;;;;20.47;34.85;98962.36;1690001;84;21119;-70
2022/04/07 08:59:21;;;;;;;6.72;4.65;;;;;;;20.08;35.35;98961.19;1689994;84;21257;-70
2022/04/07 09:01:47;;;;;;;7.10;4.42;;;;;;;19.97;35.96;98965.37;1722847;82;21090;-70
2022/04/07 09:04:14;;;;;;;9.58;5.10;;;;;;;20.02;36.55;98961.80;1734197;82;21118;-70
2022/04/07 09:06:42;;;;;;;7.80;4.83;;;;;;;20.21;35.73;98951.52;1733980;82;21038;-71
2022/04/07 09:09:22;;;;;;;5.70;4.08;;;;;;;20.27;35.56;98950.44;1734547;81;21074;-69
2022/04/07 09:11:56;;;;;;;9.30;3.90;;;;;;;20.16;34.99;98949.79;1734076;82;21042;-69
2022/04/07 09:14:24;;;;;;;7.05;4.40;;;;;;;20.04;35.29;98938.44;1714581;82;21046;-70
2022/04/07 09:16:55;;;;;;;7.75;4.00;;;;;;;19.97;35.64;98939.98;1734276;82;21078;-70
2022/04/07 09:19:22;;;;;;;7.58;4.58;;;;;;;19.99;35.40;98934.00;1734380;82;21018;-69
2022/04/07 09:22:11;;;;;;;7.72;4.15;;;;;;;20.09;35.24;98926.31;1734329;82;21053;-70
2022/04/07 09:24:38;;;;;;;7.55;4.42;;;;;;;19.99;35.24;98925.52;1734484;82;21050;-70
2022/04/07 09:27:08;;;;;;;8.98;4.78;;;;;;;20.10;35.09;98924.47;1734214;82;21114;-70
2022/04/07 09:29:43;;;;;;;9.37;4.63;;;;;;;20.11;34.96;98915.48;1734547;82;21058;-70
2022/04/07 09:32:24;;;;;;;8.75;4.53;;;;;;;20.15;35.40;98907.99;1713055;82;21180;-70
2022/04/07 09:34:59;;;;;;;9.00;4.75;;;;;;;20.33;35.11;98917.75;1734412;82;21133;-70
2022/04/07 09:37:29;;;;;;;10.63;4.62;;;;;;;19.93;35.65;98896.70;1733950;82;21518;-70
2022/04/07 09:40:14;;;;;;;10.23;4.53;;;;;;;19.91;35.21;98902.19;1734102;82;21546;-70
2022/04/07 09:42:42;;;;;;;9.03;5.05;;;;;;;20.03;35.99;98881.45;1734327;82;21045;-70
2022/04/07 09:45:15;;;;;;;7.58;4.20;;;;;;;20.45;35.55;98886.80;1734138;82;21093;-71
2022/04/07 09:47:45;;;;;;;8.60;4.37;;;;;;;20.89;34.40;98889.14;1733764;82;21510;-71
2022/04/07 09:50:33;;;;;;;6.45;4.20;;;;;;;20.85;34.89;98880.23;1733868;82;21048;-71
2022/04/07 09:53:05;;;;;;;9.43;4.17;;;;;;;20.56;34.78;98870.57;1733911;82;21109;-71
2022/04/07 09:55:40;;;;;;;8.55;4.40;;;;;;;20.72;34.27;98872.07;1734261;82;21077;-70
2022/04/07 09:58:08;;;;;;;6.75;4.28;;;;;;;20.69;33.68;98873.72;1733811;82;21558;-70
2022/04/07 10:00:36;;;;;;;12.58;4.85;;;;;;;20.57;34.60;98865.58;1734159;82;21049;-71
2022/04/07 10:03:03;;;;;;;6.10;3.80;;;;;;;20.56;34.65;98852.32;1734075;82;21143;-70
2022/04/07 10:05:31;;;;;;;5.97;3.90;;;;;;;20.48;34.03;98861.11;1734036;82;21119;-70
2022/04/07 10:07:58;;;;;;;6.25;3.65;;;;;;;20.27;34.06;98851.53;1734255;82;21117;-71
2022/04/07 10:10:26;;;;;;;6.67;4.40;;;;;;;20.19;34.56;98845.23;1737499;81;21010;-70
2022/04/07 10:12:59;;;;;;;9.43;4.87;;;;;;;20.11;34.28;98836.64;1742246;82;21022;-71
2022/04/07 10:15:25;;;;;;;12.80;5.22;;;;;;;19.94;35.07;98835.58;1742369;82;21242;-70
2022/04/07 10:17:52;;;;;;;11.28;5.87;;;;;;;19.95;35.64;98832.44;1741933;82;21081;-70
2022/04/07 10:20:19;;;;;;;11.83;6.10;;;;;;;20.25;36.24;98832.12;1742278;82;21080;-70
2022/04/07 10:23:21;;;;;;;18.45;6.40;;;;;;;20.33;35.40;98824.17;1742413;82;21086;-71
2022/04/07 10:25:49;;;;;;;14.28;6.15;;;;;;;20.37;35.93;98810.02;1723097;82;21014;-71
2022/04/07 10:28:16;;;;;;;11.45;5.60;;;;;;;20.39;33.85;98816.56;1742238;82;21349;-70
2022/04/07 10:30:52;;;;;;;10.20;6.40;;;;;;;20.44;34.48;98808.92;1742351;82;21081;-70
2022/04/07 10:33:46;;;;;;;11.18;6.28;;;;;;;20.61;34.70;98804.59;1742305;82;21467;-69
2022/04/07 10:36:18;;;;;;;10.10;6.03;;;;;;;20.94;34.04;98807.89;1731448;82;21058;-70
2022/04/07 10:38:49;;;;;;;9.90;6.22;;;;;;;20.87;33.29;98806.84;1742364;82;21550;-70
2022/04/07 10:41:38;;;;;;;9.20;6.20;;;;;;;20.78;34.22;98797.56;1742447;82;21848;-71
2022/04/07 10:44:15;;;;;;;9.20;6.08;;;;;;;20.71;33.85;98814.23;1735414;82;21089;-70
2022/04/07 10:46:42;;;;;;;12.75;6.58;;;;;;;20.22;34.89;98796.81;1742612;82;21042;-70
2022/04/07 10:49:10;;;;;;;9.93;6.35;;;;;;;19.94;35.10;98783.98;1742278;82;21514;-70
2022/04/07 10:51:42;;;;;;;11.95;5.85;;;;;;;19.77;35.36;98783.80;1716454;82;21007;-69
2022/04/07 10:54:09;;;;;;;13.60;6.45;;;;;;;19.97;35.84;98783.20;1712846;83;21104;-71
2022/04/07 10:56:38;;;;;;;10.60;6.20;;;;;;;20.03;34.80;98778.58;1712606;83;21097;-70
2022/04/07 10:59:23;;;;;;;14.28;6.85;;;;;;;19.94;34.49;98773.30;1712636;83;21066;-71
2022/04/07 11:02:04;;;;;;;12.10;6.45;;;;;;;19.88;35.10;98779.59;1712672;83;21097;-70
2022/04/07 11:05:03;;;;;;;17.70;6.80;;;;;;;19.85;34.32;98779.03;1686943;83;21101;-71
2022/04/07 11:07:52;;;;;;;12.78;6.65;;;;;;;19.82;34.71;98768.16;1712734;83;21254;-70
2022/04/07 11:10:45;;;;;;;10.68;5.95;;;;;;;19.94;34.00;98763.95;1713830;83;21581;-70
2022/04/07 11:13:11;;;;;;;13.53;6.83;;;;;;;19.75;34.11;98776.42;1718347;83;21100;-70
2022/04/07 11:15:46;;;;;;;17.30;6.33;;;;;;;19.83;34.20;98760.50;1691659;83;21064;-70
2022/04/07 11:18:41;;;;;;;9.40;6.60;;;;;;;19.96;34.25;98764.64;1718439;83;21109;-71
2022/04/07 11:21:12;;;;;;;14.40;6.33;;;;;;;20.33;34.33;98765.36;1717817;83;21517;-70
2022/04/07 11:23:44;;;;;;;10.20;6.35;;;;;;;20.39;33.11;98749.72;1718613;83;21009;-71
2022/04/07 11:26:14;;;;;;;7.10;4.95;;;;;;;20.23;33.68;98755.24;1717625;83;21485;-70
2022/04/07 11:29:04;;;;;;;;;;;;;;;20.12;32.52;98735.41;1721201;83;21006;-70
2022/04/07 11:31:51;;;;;;;11.60;6.85;;;;;;;20.04;32.79;98755.39;1718831;83;20141;-70
2022/04/07 11:34:45;;;;;;;9.73;5.55;;;;;;;20.11;32.93;98744.44;1718598;83;22126;-70
2022/04/07 11:37:19;;;;;;;10.68;4.95;;;;;;;20.16;32.23;98738.14;1718052;83;21093;-69